createdAt,value
2022-07-31T00:01:49.796Z,16.72
2022-07-31T00:04:16.943Z,16.66
2022-07-31T00:06:43.809Z,16.61
2022-07-31T00:09:20.517Z,16.59
2022-07-31T00:11:58.014Z,16.63
2022-07-31T00:14:24.883Z,16.63
2022-07-31T00:16:51.707Z,16.60
2022-07-31T00:19:18.554Z,16.61
2022-07-31T00:21:45.388Z,16.59
2022-07-31T00:24:12.233Z,16.58
2022-07-31T00:26:39.073Z,16.55
2022-07-31T00:29:06.138Z,16.52
2022-07-31T00:31:33.776Z,16.47
2022-07-31T00:34:05.752Z,16.39
2022-07-31T00:36:32.667Z,16.34
2022-07-31T00:38:59.689Z,16.28
2022-07-31T00:41:36.608Z,16.30
2022-07-31T00:44:03.488Z,16.25
2022-07-31T00:46:30.890Z,16.24
2022-07-31T00:48:58.704Z,16.20
2022-07-31T00:51:25.589Z,16.23
2022-07-31T00:53:52.407Z,16.22
2022-07-31T00:56:19.304Z,16.23
2022-07-31T00:58:46.289Z,16.22
2022-07-31T01:01:13.356Z,16.26
2022-07-31T01:03:40.241Z,16.31
2022-07-31T01:06:07.101Z,16.31
2022-07-31T01:08:33.956Z,16.31
2022-07-31T01:11:36.405Z,16.36
2022-07-31T01:14:08.733Z,16.39
2022-07-31T01:16:37.493Z,16.37
2022-07-31T01:19:10.694Z,16.33
2022-07-31T01:21:42.703Z,16.26
2022-07-31T01:24:12.411Z,16.30
2022-07-31T01:27:06.285Z,16.28
2022-07-31T01:29:42.957Z,16.27
2022-07-31T01:32:27.478Z,16.27
2022-07-31T01:35:04.833Z,16.29
2022-07-31T01:37:38.369Z,16.31
2022-07-31T01:40:11.371Z,16.33
2022-07-31T01:42:40.562Z,16.31
2022-07-31T01:45:08.286Z,16.31
2022-07-31T01:47:38.882Z,16.31
2022-07-31T01:50:07.693Z,16.25
2022-07-31T01:52:35.833Z,16.24
2022-07-31T01:55:04.330Z,16.18
2022-07-31T01:57:32.311Z,16.19
2022-07-31T02:00:03.363Z,16.15
2022-07-31T02:02:47.933Z,16.17
2022-07-31T02:05:16.182Z,16.13
2022-07-31T02:07:44.994Z,16.09
2022-07-31T02:10:13.479Z,16.06
2022-07-31T02:12:40.620Z,16.00
2022-07-31T02:15:09.503Z,16.00
2022-07-31T02:17:38.951Z,15.96
2022-07-31T02:20:18.326Z,15.93
2022-07-31T02:22:45.376Z,15.89
2022-07-31T02:25:12.481Z,15.78
2022-07-31T02:27:57.747Z,15.75
2022-07-31T02:30:27.763Z,15.71
2022-07-31T02:33:08.492Z,15.66
2022-07-31T02:35:35.426Z,15.57
2022-07-31T02:38:02.611Z,15.52
2022-07-31T02:40:30.279Z,15.48
2022-07-31T02:42:57.365Z,15.43
2022-07-31T02:45:24.585Z,15.35
2022-07-31T02:47:53.440Z,15.29
2022-07-31T02:50:20.635Z,15.23
2022-07-31T02:52:48.509Z,15.18
2022-07-31T02:55:15.920Z,15.14
2022-07-31T02:57:44.473Z,15.06
2022-07-31T03:00:19.105Z,15.04
2022-07-31T03:02:58.172Z,15.06
2022-07-31T03:05:26.117Z,15.10
2022-07-31T03:07:52.953Z,15.09
2022-07-31T03:10:19.897Z,15.11
2022-07-31T03:13:05.804Z,15.17
2022-07-31T03:15:33.048Z,15.24
2022-07-31T03:18:00.718Z,15.28
2022-07-31T03:20:34.577Z,15.30
2022-07-31T03:23:02.227Z,15.33
2022-07-31T03:25:30.088Z,15.39
2022-07-31T03:27:57.049Z,15.41
2022-07-31T03:30:24.876Z,15.43
2022-07-31T03:32:54.374Z,15.45
2022-07-31T03:35:21.513Z,15.45
2022-07-31T03:37:48.362Z,15.43
2022-07-31T03:40:15.289Z,15.43
2022-07-31T03:42:42.948Z,15.42
2022-07-31T03:45:10.831Z,15.42
2022-07-31T03:47:37.966Z,15.39
2022-07-31T03:50:05.453Z,15.33
2022-07-31T03:52:32.570Z,15.37
2022-07-31T03:54:59.945Z,15.39
2022-07-31T03:57:30.245Z,15.42
2022-07-31T03:59:59.230Z,15.44
2022-07-31T04:02:27.597Z,15.46
2022-07-31T04:05:09.522Z,15.45
2022-07-31T04:07:37.117Z,15.46
2022-07-31T04:10:04.132Z,15.44
2022-07-31T04:12:30.960Z,15.44
2022-07-31T04:14:57.854Z,15.47
2022-07-31T04:17:25.620Z,15.49
2022-07-31T04:19:52.534Z,15.46
2022-07-31T04:22:19.400Z,15.44
2022-07-31T04:24:46.734Z,15.37
2022-07-31T04:27:48.766Z,15.38
2022-07-31T04:30:16.699Z,15.43
2022-07-31T04:32:44.365Z,15.49
2022-07-31T04:35:13.500Z,15.50
2022-07-31T04:37:40.900Z,15.57
2022-07-31T04:40:15.872Z,15.61
2022-07-31T04:42:42.818Z,15.57
2022-07-31T04:45:09.844Z,15.79
2022-07-31T04:47:37.013Z,16.05
2022-07-31T04:50:04.510Z,16.33
2022-07-31T04:52:31.729Z,16.73
2022-07-31T04:55:04.048Z,17.00
2022-07-31T04:57:30.933Z,16.97
2022-07-31T05:00:00.872Z,17.09
2022-07-31T05:02:31.309Z,17.02
2022-07-31T05:04:58.267Z,17.15
2022-07-31T05:07:31.569Z,17.14
2022-07-31T05:10:01.191Z,17.22
2022-07-31T05:12:28.090Z,17.32
2022-07-31T05:14:55.000Z,17.58
2022-07-31T05:17:21.949Z,17.89
2022-07-31T05:19:59.725Z,18.06
2022-07-31T05:22:52.431Z,18.45
2022-07-31T05:25:36.338Z,18.31
2022-07-31T05:28:03.312Z,18.51
2022-07-31T05:30:35.798Z,18.62
2022-07-31T05:33:02.660Z,18.66
2022-07-31T05:35:30.108Z,18.72
2022-07-31T05:37:57.756Z,18.82
2022-07-31T05:40:39.282Z,18.71
2022-07-31T05:43:32.548Z,18.81
2022-07-31T05:46:13.240Z,18.83
2022-07-31T05:48:40.738Z,18.93
2022-07-31T05:51:11.518Z,19.01
2022-07-31T05:53:39.906Z,19.00
2022-07-31T05:56:25.510Z,19.09
2022-07-31T05:58:54.091Z,19.18
2022-07-31T06:01:20.982Z,19.38
2022-07-31T06:03:51.436Z,19.44
2022-07-31T06:06:20.466Z,19.52
2022-07-31T06:08:47.322Z,19.57
2022-07-31T06:11:14.184Z,19.62
2022-07-31T06:13:41.033Z,19.73
2022-07-31T06:16:30.477Z,19.79
2022-07-31T06:18:57.374Z,19.78
2022-07-31T06:21:30.380Z,19.85
2022-07-31T06:23:57.690Z,19.98
2022-07-31T06:26:34.508Z,20.01
2022-07-31T06:29:01.888Z,20.02
2022-07-31T06:31:28.840Z,20.16
2022-07-31T06:33:57.809Z,20.25
2022-07-31T06:36:29.398Z,20.43
2022-07-31T06:38:57.552Z,20.53
2022-07-31T06:41:26.997Z,20.55
2022-07-31T06:43:55.097Z,20.48
2022-07-31T06:46:49.325Z,20.67
2022-07-31T06:49:35.071Z,20.54
2022-07-31T06:52:05.571Z,20.53
2022-07-31T06:54:33.212Z,20.53
2022-07-31T06:57:00.165Z,20.65
2022-07-31T06:59:39.322Z,20.84
2022-07-31T07:02:08.220Z,21.07
2022-07-31T07:04:57.440Z,21.23
2022-07-31T07:07:22.227Z,21.23
2022-07-31T07:09:50.561Z,21.21
2022-07-31T07:12:32.820Z,21.40
2022-07-31T07:15:01.618Z,21.34
2022-07-31T07:17:29.376Z,21.46
2022-07-31T07:19:56.759Z,21.49
2022-07-31T07:22:30.046Z,21.55
2022-07-31T07:25:00.392Z,21.62
2022-07-31T07:27:27.396Z,21.61
2022-07-31T07:29:54.301Z,21.73
2022-07-31T07:32:21.191Z,21.86
2022-07-31T07:34:48.363Z,21.80
2022-07-31T07:37:45.654Z,21.58
2022-07-31T07:40:13.018Z,21.83
2022-07-31T07:42:40.301Z,21.94
2022-07-31T07:45:08.243Z,21.94
2022-07-31T07:47:54.073Z,22.04
2022-07-31T07:50:27.026Z,22.01
2022-07-31T07:53:19.195Z,21.99
2022-07-31T07:56:06.464Z,22.11
2022-07-31T07:58:53.569Z,22.54
2022-07-31T08:01:58.591Z,23.25
2022-07-31T08:04:29.697Z,23.30
2022-07-31T08:06:56.520Z,23.35
2022-07-31T08:09:26.052Z,23.49
2022-07-31T08:12:11.213Z,23.81
2022-07-31T08:15:07.208Z,23.96
2022-07-31T08:17:59.887Z,24.14
2022-07-31T08:20:27.623Z,24.26
2022-07-31T08:22:54.474Z,24.33
2022-07-31T08:25:21.371Z,24.44
2022-07-31T08:27:49.558Z,24.67
2022-07-31T08:30:16.808Z,24.83
2022-07-31T08:32:43.704Z,24.95
2022-07-31T08:35:19.631Z,25.54
2022-07-31T08:38:02.277Z,26.08
2022-07-31T08:40:42.710Z,26.49
2022-07-31T08:44:00.791Z,26.79
2022-07-31T08:45:59.145Z,26.72
2022-07-31T08:48:30.827Z,26.68
2022-07-31T08:50:58.788Z,26.69
2022-07-31T08:53:44.198Z,26.84
2022-07-31T08:56:16.140Z,26.47
2022-07-31T08:58:43.604Z,26.49
2022-07-31T09:01:14.108Z,26.63
2022-07-31T09:03:41.554Z,27.13
2022-07-31T09:06:12.159Z,27.25
2022-07-31T09:08:39.241Z,27.20
2022-07-31T09:11:07.701Z,27.60
2022-07-31T09:14:01.513Z,27.96
2022-07-31T09:16:47.543Z,29.02
2022-07-31T09:19:51.147Z,29.03
2022-07-31T09:22:23.271Z,28.46
2022-07-31T09:24:50.568Z,28.29
2022-07-31T09:27:17.706Z,28.16
2022-07-31T09:29:45.447Z,28.11
2022-07-31T09:32:32.222Z,27.82
2022-07-31T09:35:10.682Z,27.91
2022-07-31T09:37:38.452Z,27.69
2022-07-31T09:40:33.632Z,27.53
2022-07-31T09:43:36.371Z,27.53
2022-07-31T09:46:19.015Z,27.84
2022-07-31T09:48:52.782Z,28.11
2022-07-31T09:51:37.573Z,28.20
2022-07-31T09:54:04.644Z,28.55
2022-07-31T09:57:13.061Z,28.71
2022-07-31T09:59:51.265Z,28.95
2022-07-31T10:02:18.416Z,29.15
2022-07-31T10:04:48.250Z,29.34
2022-07-31T10:07:24.422Z,29.19
2022-07-31T10:10:04.019Z,29.49
2022-07-31T10:12:44.953Z,30.03
2022-07-31T10:15:12.856Z,29.42
2022-07-31T10:17:43.854Z,29.22
2022-07-31T10:20:22.794Z,29.38
2022-07-31T10:23:15.988Z,29.27
2022-07-31T10:25:53.430Z,28.96
2022-07-31T10:28:21.460Z,28.97
2022-07-31T10:30:48.771Z,28.74
2022-07-31T10:33:42.041Z,28.83
2022-07-31T10:36:23.687Z,28.66
2022-07-31T10:39:20.656Z,28.99
2022-07-31T10:41:59.894Z,29.03
2022-07-31T10:44:26.964Z,29.25
2022-07-31T10:46:59.374Z,29.36
2022-07-31T10:49:49.497Z,29.05
2022-07-31T10:52:32.758Z,29.45
2022-07-31T10:55:16.028Z,29.12
2022-07-31T10:58:06.977Z,29.21
2022-07-31T11:01:06.646Z,29.19
2022-07-31T11:03:54.977Z,29.01
2022-07-31T11:06:41.905Z,29.02
2022-07-31T11:09:28.071Z,29.28
2022-07-31T11:12:18.589Z,29.06
2022-07-31T11:15:22.895Z,29.14
2022-07-31T11:18:25.013Z,29.41
2022-07-31T11:21:35.869Z,29.50
2022-07-31T11:24:03.859Z,29.33
2022-07-31T11:26:33.258Z,29.27
2022-07-31T11:30:02.012Z,29.41
2022-07-31T11:31:55.549Z,29.08
2022-07-31T11:34:22.442Z,29.20
2022-07-31T11:36:51.550Z,29.79
2022-07-31T11:39:18.742Z,29.68
2022-07-31T11:41:50.615Z,29.94
2022-07-31T11:44:21.601Z,29.97
2022-07-31T11:46:49.325Z,29.83
2022-07-31T11:49:47.807Z,29.49
2022-07-31T11:52:10.795Z,29.81
2022-07-31T11:55:08.905Z,30.04
2022-07-31T11:57:51.333Z,30.21
2022-07-31T12:00:26.861Z,30.16
2022-07-31T12:02:56.868Z,29.47
2022-07-31T12:05:38.460Z,29.46
2022-07-31T12:08:06.893Z,29.97
2022-07-31T12:10:33.948Z,29.88
2022-07-31T12:13:01.807Z,30.21
2022-07-31T12:15:28.721Z,30.02
2022-07-31T12:18:02.330Z,30.20
2022-07-31T12:20:35.269Z,29.65
2022-07-31T12:23:04.609Z,30.07
2022-07-31T12:25:41.559Z,30.23
2022-07-31T12:28:08.913Z,29.85
2022-07-31T12:30:35.795Z,29.82
2022-07-31T12:33:06.568Z,29.84
2022-07-31T12:35:56.075Z,29.80
2022-07-31T12:38:41.111Z,30.06
2022-07-31T12:41:12.002Z,29.91
2022-07-31T12:43:39.324Z,29.56
2022-07-31T12:46:17.218Z,29.59
2022-07-31T12:48:46.154Z,29.92
2022-07-31T12:51:13.316Z,29.83
2022-07-31T12:53:40.163Z,29.90
2022-07-31T12:56:10.962Z,30.02
2022-07-31T12:58:37.790Z,30.08
2022-07-31T13:01:04.693Z,30.44
2022-07-31T13:03:46.031Z,30.72
2022-07-31T13:06:13.724Z,30.55
2022-07-31T13:08:40.564Z,30.55
2022-07-31T13:11:07.411Z,30.76
2022-07-31T13:13:34.281Z,30.67
2022-07-31T13:16:01.154Z,30.81
2022-07-31T13:18:28.028Z,31.19
2022-07-31T13:20:54.848Z,31.62
2022-07-31T13:23:21.692Z,31.70
2022-07-31T13:25:48.508Z,31.73
2022-07-31T13:28:15.354Z,32.20
2022-07-31T13:30:42.225Z,32.76
2022-07-31T13:33:09.095Z,32.72
2022-07-31T13:35:35.996Z,32.14
2022-07-31T13:38:02.832Z,32.46
2022-07-31T13:40:29.649Z,31.71
2022-07-31T13:42:56.521Z,31.46
2022-07-31T13:45:23.370Z,31.22
2022-07-31T13:47:51.362Z,31.19
2022-07-31T13:50:19.390Z,31.48
2022-07-31T13:52:46.295Z,31.45
2022-07-31T13:55:13.219Z,31.95
2022-07-31T13:57:40.060Z,31.73
2022-07-31T14:00:07.235Z,31.27
2022-07-31T14:02:34.263Z,31.53
2022-07-31T14:05:01.188Z,31.38
2022-07-31T14:07:47.941Z,31.26
2022-07-31T14:10:19.895Z,31.47
2022-07-31T14:12:47.541Z,31.66
2022-07-31T14:15:14.387Z,31.37
2022-07-31T14:17:41.211Z,30.87
2022-07-31T14:20:08.491Z,31.32
2022-07-31T14:22:35.369Z,31.25
2022-07-31T14:25:02.179Z,31.38
2022-07-31T14:27:29.047Z,31.65
2022-07-31T14:29:56.030Z,31.81
2022-07-31T14:32:22.940Z,31.37
2022-07-31T14:34:50.184Z,31.09
2022-07-31T14:37:17.100Z,30.97
2022-07-31T14:39:44.037Z,31.15
2022-07-31T14:42:10.892Z,31.16
2022-07-31T14:44:38.161Z,31.02
2022-07-31T14:47:05.324Z,30.98
2022-07-31T14:50:06.882Z,31.10
2022-07-31T14:52:19.227Z,30.90
2022-07-31T14:54:46.078Z,30.78
2022-07-31T14:57:13.203Z,30.64
2022-07-31T14:59:46.827Z,30.83
2022-07-31T15:02:14.509Z,31.09
2022-07-31T15:04:43.338Z,31.12
2022-07-31T15:07:33.601Z,31.07
2022-07-31T15:09:57.039Z,31.34
2022-07-31T15:12:23.857Z,31.25
2022-07-31T15:14:50.744Z,30.87
2022-07-31T15:17:17.595Z,30.74
2022-07-31T15:19:44.496Z,30.82
2022-07-31T15:22:16.480Z,30.61
2022-07-31T15:24:48.487Z,30.51
2022-07-31T15:27:34.241Z,30.47
2022-07-31T15:30:06.939Z,30.51
2022-07-31T15:32:35.723Z,30.62
2022-07-31T15:35:03.247Z,30.44
2022-07-31T15:37:33.106Z,30.43
2022-07-31T15:40:02.922Z,30.40
2022-07-31T15:42:31.165Z,30.34
2022-07-31T15:44:58.064Z,30.44
2022-07-31T15:47:24.980Z,30.61
2022-07-31T15:49:51.806Z,30.59
2022-07-31T15:52:19.460Z,31.10
2022-07-31T15:54:46.915Z,31.15
2022-07-31T15:57:14.737Z,31.14
2022-07-31T15:59:41.733Z,31.05
2022-07-31T16:02:08.566Z,30.67
2022-07-31T16:04:35.443Z,30.52
2022-07-31T16:08:27.424Z,30.81
2022-07-31T16:10:15.960Z,31.00
2022-07-31T16:12:36.283Z,30.66
2022-07-31T16:15:03.433Z,30.70
2022-07-31T16:17:34.727Z,30.79
2022-07-31T16:20:01.571Z,30.80
2022-07-31T16:22:28.418Z,30.63
2022-07-31T16:24:55.261Z,30.54
2022-07-31T16:27:22.116Z,30.24
2022-07-31T16:29:59.794Z,29.95
2022-07-31T16:32:29.232Z,29.60
2022-07-31T16:35:00.631Z,29.71
2022-07-31T16:37:50.990Z,29.66
2022-07-31T16:40:29.239Z,29.58
2022-07-31T16:43:48.397Z,29.52
2022-07-31T16:45:48.957Z,29.22
2022-07-31T16:48:16.061Z,29.16
2022-07-31T16:50:42.907Z,29.05
2022-07-31T16:53:09.750Z,28.80
2022-07-31T16:56:00.164Z,28.72
2022-07-31T16:58:27.325Z,28.45
2022-07-31T17:00:54.238Z,28.35
2022-07-31T17:04:00.586Z,28.31
2022-07-31T17:06:07.975Z,28.32
2022-07-31T17:08:34.873Z,28.18
2022-07-31T17:11:01.734Z,28.03
2022-07-31T17:13:28.578Z,27.90
2022-07-31T17:15:55.396Z,27.86
2022-07-31T17:18:22.250Z,27.86
2022-07-31T17:20:49.077Z,27.81
2022-07-31T17:23:15.981Z,27.75
2022-07-31T17:25:42.838Z,27.55
2022-07-31T17:28:14.743Z,27.45
2022-07-31T17:30:42.248Z,27.23
2022-07-31T17:33:09.175Z,27.00
2022-07-31T17:35:36.045Z,26.79
2022-07-31T17:38:02.919Z,26.74
2022-07-31T17:40:42.904Z,26.64
2022-07-31T17:43:10.873Z,26.60
2022-07-31T17:45:59.769Z,26.50
2022-07-31T17:48:24.518Z,26.30
2022-07-31T17:50:54.094Z,26.12
2022-07-31T17:53:21.430Z,25.92
2022-07-31T17:55:48.358Z,25.68
2022-07-31T17:58:15.448Z,25.49
2022-07-31T18:00:45.242Z,25.36
2022-07-31T18:03:12.170Z,25.21
2022-07-31T18:05:39.371Z,25.02
2022-07-31T18:08:06.271Z,24.94
2022-07-31T18:10:53.478Z,24.91
2022-07-31T18:13:20.010Z,24.77
2022-07-31T18:15:46.922Z,24.73
2022-07-31T18:18:14.271Z,24.65
2022-07-31T18:20:41.172Z,24.64
2022-07-31T18:23:10.291Z,24.57
2022-07-31T18:25:37.370Z,24.47
2022-07-31T18:28:04.257Z,24.47
2022-07-31T18:30:33.682Z,24.40
2022-07-31T18:33:03.098Z,24.32
2022-07-31T18:35:29.948Z,24.22
2022-07-31T18:37:56.786Z,24.09
2022-07-31T18:40:23.713Z,23.95
2022-07-31T18:42:50.548Z,23.87
2022-07-31T18:45:17.437Z,23.85
2022-07-31T18:47:44.309Z,23.77
2022-07-31T18:50:59.863Z,23.69
2022-07-31T18:52:58.033Z,23.65
2022-07-31T18:55:24.861Z,23.55
2022-07-31T18:57:51.731Z,23.50
2022-07-31T19:00:18.558Z,23.39
2022-07-31T19:02:45.391Z,23.32
2022-07-31T19:05:14.902Z,23.27
2022-07-31T19:07:49.088Z,23.24
2022-07-31T19:10:31.241Z,23.19
2022-07-31T19:12:58.937Z,23.05
2022-07-31T19:15:25.816Z,23.00
2022-07-31T19:17:52.659Z,23.00
2022-07-31T19:20:40.400Z,22.97
2022-07-31T19:23:12.620Z,22.97
2022-07-31T19:25:53.902Z,22.94
2022-07-31T19:28:27.255Z,22.91
2022-07-31T19:30:54.841Z,22.89
2022-07-31T19:33:21.701Z,22.81
2022-07-31T19:35:55.212Z,22.77
2022-07-31T19:38:25.627Z,22.72
2022-07-31T19:40:52.448Z,22.68
2022-07-31T19:43:20.264Z,22.68
2022-07-31T19:46:06.889Z,22.66
2022-07-31T19:48:34.736Z,22.66
2022-07-31T19:51:01.649Z,22.63
2022-07-31T19:53:28.496Z,22.62
2022-07-31T19:55:55.398Z,22.59
2022-07-31T19:58:22.253Z,22.56
2022-07-31T20:00:49.111Z,22.55
2022-07-31T20:03:16.049Z,22.51
2022-07-31T20:05:42.921Z,22.45
2022-07-31T20:08:09.784Z,22.40
2022-07-31T20:10:37.651Z,22.37
2022-07-31T20:13:04.492Z,22.32
2022-07-31T20:15:51.170Z,22.22
2022-07-31T20:18:27.459Z,22.16
2022-07-31T20:20:56.899Z,22.11
2022-07-31T20:23:24.432Z,22.08
2022-07-31T20:25:51.360Z,22.02
2022-07-31T20:28:18.227Z,21.95
2022-07-31T20:30:45.096Z,21.89
2022-07-31T20:33:13.422Z,21.77
2022-07-31T20:35:49.001Z,21.72
2022-07-31T20:38:17.862Z,21.71
2022-07-31T20:40:52.922Z,21.63
2022-07-31T20:43:25.667Z,21.63
2022-07-31T20:45:53.141Z,21.58
2022-07-31T20:48:20.294Z,21.53
2022-07-31T20:50:47.861Z,21.53
2022-07-31T20:53:16.306Z,21.53
2022-07-31T20:55:43.193Z,21.56
2022-07-31T20:58:10.042Z,21.54
2022-07-31T21:00:36.890Z,21.54
2022-07-31T21:03:04.191Z,21.56
2022-07-31T21:05:31.175Z,21.59
2022-07-31T21:07:58.010Z,21.59
2022-07-31T21:10:25.196Z,21.49
2022-07-31T21:12:52.859Z,21.42
2022-07-31T21:15:42.665Z,21.35
2022-07-31T21:18:06.534Z,21.30
2022-07-31T21:20:52.375Z,21.21
2022-07-31T21:23:29.224Z,21.16
2022-07-31T21:25:56.623Z,21.08
2022-07-31T21:28:24.511Z,21.03
2022-07-31T21:30:51.835Z,20.90
2022-07-31T21:33:18.929Z,20.82
2022-07-31T21:35:46.394Z,20.73
2022-07-31T21:38:13.666Z,20.71
2022-07-31T21:40:40.712Z,20.65
2022-07-31T21:43:08.223Z,20.56
2022-07-31T21:45:50.832Z,20.54
2022-07-31T21:48:22.973Z,20.51
2022-07-31T21:50:50.022Z,20.45
2022-07-31T21:53:16.881Z,20.42
2022-07-31T21:55:43.801Z,20.39
2022-07-31T21:58:10.960Z,20.30
2022-07-31T22:00:37.874Z,20.25
2022-07-31T22:03:05.385Z,20.21
2022-07-31T22:05:32.254Z,20.21
2022-07-31T22:07:59.090Z,20.13
2022-07-31T22:10:25.907Z,20.10
2022-07-31T22:12:58.516Z,20.06
2022-07-31T22:15:25.376Z,19.99
2022-07-31T22:17:52.274Z,19.95
2022-07-31T22:20:19.290Z,19.93
2022-07-31T22:22:46.312Z,19.88
2022-07-31T22:25:13.465Z,19.88
2022-07-31T22:27:40.503Z,19.83
2022-07-31T22:30:08.330Z,19.81
2022-07-31T22:32:35.544Z,19.79
2022-07-31T22:35:02.629Z,19.72
2022-07-31T22:37:29.836Z,19.73
2022-07-31T22:39:57.908Z,19.70
2022-07-31T22:42:25.021Z,19.64
2022-07-31T22:44:51.937Z,19.61
2022-07-31T22:47:19.343Z,19.59
2022-07-31T22:49:46.254Z,19.55
2022-07-31T22:52:13.132Z,19.54
2022-07-31T22:54:40.480Z,19.50
2022-07-31T22:57:07.331Z,19.50
2022-07-31T22:59:36.033Z,19.47
2022-07-31T23:02:04.706Z,19.44
2022-07-31T23:04:31.766Z,19.42
2022-07-31T23:06:58.599Z,19.38
2022-07-31T23:09:25.563Z,19.33
2022-07-31T23:11:52.406Z,19.28
2022-07-31T23:14:20.034Z,19.28
2022-07-31T23:16:46.860Z,19.26
2022-07-31T23:19:13.702Z,19.26
2022-07-31T23:21:40.538Z,19.23
2022-07-31T23:24:07.546Z,19.21
2022-07-31T23:26:34.452Z,19.21
2022-07-31T23:29:01.454Z,19.13
2022-07-31T23:31:28.281Z,19.09
2022-07-31T23:33:55.142Z,19.03
2022-07-31T23:36:22.047Z,19.00
2022-07-31T23:38:49.216Z,18.96
2022-07-31T23:41:16.212Z,18.95
2022-07-31T23:43:55.186Z,18.92
2022-07-31T23:46:26.819Z,18.84
2022-07-31T23:48:54.780Z,18.82
2022-07-31T23:51:22.657Z,18.75
2022-07-31T23:53:49.492Z,18.70
2022-07-31T23:56:19.341Z,18.63
2022-07-31T23:58:46.697Z,18.61
